Terminal Aerodrome Forecast
Issued by NWS El Paso, TX

Home | Current Version | Previous Version | Text Only | Print | Product List | Glossary On
Versions: 1 2 3 4 5 6 7 8 9 10 11 12 13 14 15 16 17 18
000
FTUS44 KEPZ 290500
TAFELP
TAF
KELP 290533Z 2906/3006 05007KT P6SM VCTS SCT080CB BKN250
     FM290900 VRB04KT P6SM SCT120 SCT250
     FM292000 21007KT P6SM VCTS SCT080CB SCT250
     FM300500 27006KT P6SM SCT120 SCT250=

USA.gov is the U.S. government's official web portal to all federal, state and local government web resources and services.